createdAt,value
2019-01-10T00:02:28.252Z,26.40
2019-01-10T00:05:02.034Z,27.57
2019-01-10T00:07:35.765Z,26.07
2019-01-10T00:10:13.915Z,25.80
2019-01-10T00:12:47.454Z,24.53
2019-01-10T00:15:21.043Z,24.57
2019-01-10T00:17:54.676Z,24.17
2019-01-10T00:20:28.330Z,24.70
2019-01-10T00:23:02.023Z,23.90
2019-01-10T00:25:35.621Z,25.07
2019-01-10T00:28:09.249Z,22.77
2019-01-10T00:30:42.899Z,23.23
2019-01-10T00:33:16.688Z,23.67
2019-01-10T00:35:50.281Z,23.70
2019-01-10T00:38:23.907Z,24.00
2019-01-10T00:40:57.507Z,22.10
2019-01-10T00:43:31.128Z,23.47
2019-01-10T00:46:04.958Z,22.73
2019-01-10T00:48:38.577Z,22.73
2019-01-10T00:51:12.855Z,22.67
2019-01-10T00:53:46.485Z,21.13
2019-01-10T00:56:20.160Z,20.87
2019-01-10T00:58:53.785Z,20.53
2019-01-10T01:01:27.639Z,18.47
2019-01-10T01:04:01.332Z,17.70
2019-01-10T01:06:34.938Z,18.83
2019-01-10T01:09:09.007Z,17.33
2019-01-10T01:11:42.732Z,17.53
2019-01-10T01:14:16.419Z,17.33
2019-01-10T01:16:50.014Z,18.40
2019-01-10T01:19:23.648Z,17.43
2019-01-10T01:21:57.222Z,18.10
2019-01-10T01:24:30.908Z,16.63
2019-01-10T01:27:04.831Z,17.77
2019-01-10T01:29:38.455Z,17.23
2019-01-10T01:32:12.103Z,17.13
2019-01-10T01:34:45.735Z,17.60
2019-01-10T01:37:19.327Z,17.43
2019-01-10T01:39:53.416Z,16.77
2019-01-10T01:42:27.005Z,16.97
2019-01-10T01:45:00.635Z,17.43
2019-01-10T01:47:34.324Z,17.53
2019-01-10T01:50:11.039Z,17.87
2019-01-10T01:52:44.687Z,18.47
2019-01-10T01:55:18.445Z,18.03
2019-01-10T01:57:52.174Z,19.10
2019-01-10T02:00:26.092Z,19.53
2019-01-10T02:02:59.722Z,19.90
2019-01-10T02:05:33.349Z,18.53
2019-01-10T02:08:07.039Z,19.60
2019-01-10T02:10:40.628Z,19.23
2019-01-10T02:13:16.853Z,16.87
2019-01-10T02:15:49.564Z,17.47
2019-01-10T02:18:23.202Z,16.47
2019-01-10T02:20:57.750Z,15.67
2019-01-10T02:23:31.416Z,16.07
2019-01-10T02:26:05.579Z,17.10
2019-01-10T02:28:39.170Z,16.67
2019-01-10T02:31:12.969Z,15.40
2019-01-10T02:33:46.550Z,16.57
2019-01-10T02:36:20.239Z,15.97
2019-01-10T02:38:53.829Z,17.23
2019-01-10T02:41:27.535Z,16.77
2019-01-10T02:44:01.133Z,17.13
2019-01-10T02:46:34.759Z,16.17
2019-01-10T02:49:08.474Z,16.90
2019-01-10T02:51:42.104Z,16.20
2019-01-10T02:54:15.851Z,14.77
2019-01-10T02:56:49.634Z,15.20
2019-01-10T02:59:23.490Z,16.07
2019-01-10T03:01:57.135Z,15.47
2019-01-10T03:04:30.760Z,15.77
2019-01-10T03:07:04.881Z,16.70
2019-01-10T03:09:38.467Z,15.27
2019-01-10T03:12:12.152Z,15.20
2019-01-10T03:14:45.805Z,15.63
2019-01-10T03:17:19.493Z,15.57
2019-01-10T03:19:53.085Z,16.33
2019-01-10T03:22:26.788Z,15.57
2019-01-10T03:25:00.376Z,15.10
2019-01-10T03:27:34.070Z,16.30
2019-01-10T03:30:11.119Z,15.50
2019-01-10T03:32:44.849Z,14.83
2019-01-10T03:35:18.554Z,15.40
2019-01-10T03:37:52.190Z,15.40
2019-01-10T03:40:25.772Z,15.50
2019-01-10T03:42:59.388Z,15.63
2019-01-10T03:45:33.055Z,14.47
2019-01-10T03:48:06.745Z,14.20
2019-01-10T03:50:40.360Z,13.93
2019-01-10T03:53:13.968Z,13.63
2019-01-10T03:55:47.626Z,15.47
2019-01-10T03:58:21.243Z,14.27
2019-01-10T04:00:54.832Z,12.87
2019-01-10T04:03:28.531Z,13.43
2019-01-10T04:06:02.106Z,13.10
2019-01-10T04:08:35.760Z,14.77
2019-01-10T04:11:09.338Z,12.97
2019-01-10T04:13:43.054Z,13.07
2019-01-10T04:16:16.804Z,13.07
2019-01-10T04:18:50.434Z,14.27
2019-01-10T04:21:24.238Z,13.93
2019-01-10T04:23:57.864Z,13.73
2019-01-10T04:26:31.522Z,14.83
2019-01-10T04:29:05.219Z,14.53
2019-01-10T04:31:38.840Z,15.37
2019-01-10T04:34:12.452Z,14.87
2019-01-10T04:36:46.061Z,14.07
2019-01-10T04:39:19.806Z,14.20
2019-01-10T04:41:53.758Z,14.33
2019-01-10T04:44:27.466Z,13.77
2019-01-10T04:47:01.053Z,13.57
2019-01-10T04:49:34.677Z,15.17
2019-01-10T04:52:09.345Z,14.07
2019-01-10T04:54:43.666Z,13.80
2019-01-10T04:57:17.246Z,14.27
2019-01-10T04:59:50.865Z,14.13
2019-01-10T05:02:24.444Z,13.53
2019-01-10T05:04:58.154Z,13.83
2019-01-10T05:07:31.730Z,15.23
2019-01-10T05:10:08.558Z,13.97
2019-01-10T05:12:42.199Z,14.07
2019-01-10T05:15:16.810Z,13.43
2019-01-10T05:17:50.393Z,13.50
2019-01-10T05:20:24.021Z,14.97
2019-01-10T05:22:57.668Z,15.73
2019-01-10T05:25:31.372Z,14.10
2019-01-10T05:28:05.099Z,14.87
2019-01-10T05:30:38.728Z,15.17
2019-01-10T05:33:12.295Z,15.23
2019-01-10T05:35:46.004Z,14.97
2019-01-10T05:38:19.587Z,19.33
2019-01-10T05:40:53.321Z,18.90
2019-01-10T05:43:26.909Z,20.50
2019-01-10T05:46:00.603Z,19.57
2019-01-10T05:48:34.191Z,20.83
2019-01-10T05:51:07.895Z,21.43
2019-01-10T05:53:41.511Z,20.57
2019-01-10T05:56:15.840Z,23.63
2019-01-10T05:58:49.587Z,23.83
2019-01-10T06:01:23.233Z,21.43
2019-01-10T06:03:56.883Z,21.70
2019-01-10T06:06:30.590Z,22.07
2019-01-10T06:09:07.477Z,22.87
2019-01-10T06:11:41.129Z,22.80
2019-01-10T06:14:14.714Z,23.40
2019-01-10T06:16:48.339Z,23.93
2019-01-10T06:19:26.735Z,22.00
2019-01-10T06:21:57.225Z,22.57
2019-01-10T06:24:30.881Z,24.13
2019-01-10T06:27:04.585Z,22.67
2019-01-10T06:29:38.172Z,23.73
2019-01-10T06:32:11.815Z,23.90
2019-01-10T06:34:45.393Z,24.17
2019-01-10T06:37:19.035Z,24.60
2019-01-10T06:39:56.176Z,24.57
2019-01-10T06:42:29.928Z,23.40
2019-01-10T06:45:04.655Z,24.40
2019-01-10T06:47:38.419Z,24.20
2019-01-10T06:50:14.542Z,25.20
2019-01-10T06:52:48.463Z,24.73
2019-01-10T06:55:22.037Z,24.67
2019-01-10T06:57:55.748Z,25.00
2019-01-10T07:00:29.394Z,25.90
2019-01-10T07:03:03.015Z,25.27
2019-01-10T07:05:36.744Z,25.23
2019-01-10T07:08:10.386Z,26.03
2019-01-10T07:10:43.950Z,25.97
2019-01-10T07:13:17.578Z,24.07
2019-01-10T07:15:51.183Z,25.03
2019-01-10T07:18:24.815Z,25.40
2019-01-10T07:20:58.393Z,25.77
2019-01-10T07:23:32.028Z,25.13
2019-01-10T07:26:05.599Z,25.47
2019-01-10T07:28:39.223Z,26.40
2019-01-10T07:31:28.323Z,25.57
2019-01-10T07:34:02.116Z,26.63
2019-01-10T07:36:35.699Z,24.90
2019-01-10T07:39:09.414Z,28.07
2019-01-10T07:41:43.184Z,26.63
2019-01-10T07:44:21.621Z,27.83
2019-01-10T07:46:55.274Z,27.83
2019-01-10T07:49:28.831Z,28.33
2019-01-10T07:52:02.637Z,30.10
2019-01-10T07:54:36.213Z,29.57
2019-01-10T07:57:10.197Z,28.97
2019-01-10T07:59:43.861Z,29.47
2019-01-10T08:02:17.497Z,28.63
2019-01-10T08:04:51.075Z,26.67
2019-01-10T08:07:25.060Z,28.90
2019-01-10T08:09:58.657Z,28.20
2019-01-10T08:12:32.289Z,26.73
2019-01-10T08:15:11.972Z,26.90
2019-01-10T08:17:43.475Z,26.57
2019-01-10T08:20:17.339Z,27.23
2019-01-10T08:22:51.151Z,29.90
2019-01-10T08:25:24.735Z,27.30
2019-01-10T08:27:58.445Z,29.23
2019-01-10T08:30:32.024Z,27.40
2019-01-10T08:33:05.898Z,26.73
2019-01-10T08:35:39.471Z,26.23
2019-01-10T08:38:13.100Z,26.57
2019-01-10T08:40:46.744Z,25.07
2019-01-10T08:43:20.376Z,24.60
2019-01-10T08:45:54.049Z,27.00
2019-01-10T08:48:27.843Z,26.10
2019-01-10T08:51:01.486Z,26.43
2019-01-10T08:53:35.126Z,26.60
2019-01-10T08:56:09.036Z,27.43
2019-01-10T08:58:42.717Z,26.37
2019-01-10T09:01:16.323Z,25.13
2019-01-10T09:03:49.919Z,28.67
2019-01-10T09:06:23.556Z,26.67
2019-01-10T09:08:57.215Z,24.60
2019-01-10T09:11:30.848Z,25.30
2019-01-10T09:14:04.793Z,24.23
2019-01-10T09:16:38.511Z,25.97
2019-01-10T09:19:12.098Z,24.60
2019-01-10T09:21:45.759Z,23.97
2019-01-10T09:24:19.335Z,25.00
2019-01-10T09:26:53.201Z,26.27
2019-01-10T09:29:26.783Z,23.93
2019-01-10T09:32:00.385Z,25.33
2019-01-10T09:34:34.077Z,25.20
2019-01-10T09:37:08.113Z,26.40
2019-01-10T09:39:41.801Z,26.10
2019-01-10T09:42:15.492Z,28.97
2019-01-10T09:44:49.079Z,27.30
2019-01-10T09:47:22.702Z,28.40
2019-01-10T09:49:56.279Z,27.00
2019-01-10T09:52:29.912Z,26.10
2019-01-10T09:55:04.382Z,27.07
2019-01-10T09:57:38.031Z,27.07
2019-01-10T10:00:14.754Z,26.73
2019-01-10T10:02:48.493Z,26.33
2019-01-10T10:05:22.313Z,26.23
2019-01-10T10:07:55.899Z,26.23
2019-01-10T10:10:29.601Z,26.53
2019-01-10T10:13:03.360Z,27.00
2019-01-10T10:15:37.003Z,25.40
2019-01-10T10:18:10.583Z,23.90
2019-01-10T10:20:44.207Z,24.87
2019-01-10T10:23:26.572Z,24.13
2019-01-10T10:25:53.215Z,23.00
2019-01-10T10:28:26.801Z,23.67
2019-01-10T10:31:00.427Z,22.53
2019-01-10T10:33:34.032Z,22.20
2019-01-10T10:36:08.080Z,22.70
2019-01-10T10:38:41.675Z,21.50
2019-01-10T10:41:15.483Z,23.97
2019-01-10T10:43:49.222Z,22.43
2019-01-10T10:46:22.893Z,21.87
2019-01-10T10:48:56.551Z,22.23
2019-01-10T10:51:30.254Z,24.10
2019-01-10T10:54:03.947Z,21.80
2019-01-10T10:56:37.992Z,21.23
2019-01-10T10:59:11.688Z,22.73
2019-01-10T11:01:45.420Z,24.47
2019-01-10T11:04:19.177Z,26.43
2019-01-10T11:06:53.023Z,26.43
2019-01-10T11:09:26.601Z,26.07
2019-01-10T11:12:00.226Z,25.20
2019-01-10T11:14:33.877Z,22.70
2019-01-10T11:17:07.738Z,20.40
2019-01-10T11:19:41.408Z,22.50
2019-01-10T11:22:15.033Z,21.33
2019-01-10T11:24:48.700Z,20.83
2019-01-10T11:27:22.336Z,22.77
2019-01-10T11:29:55.924Z,22.57
2019-01-10T11:32:29.553Z,21.97
2019-01-10T11:35:03.152Z,22.10
2019-01-10T11:37:36.837Z,22.77
2019-01-10T11:40:13.573Z,22.77
2019-01-10T11:42:47.418Z,21.73
2019-01-10T11:45:22.441Z,22.50
2019-01-10T11:47:56.178Z,24.83
2019-01-10T11:50:31.250Z,24.07
2019-01-10T11:53:05.004Z,23.53
2019-01-10T11:55:38.598Z,22.30
2019-01-10T11:58:12.352Z,23.03
2019-01-10T12:00:46.084Z,23.33
2019-01-10T12:03:19.780Z,24.70
2019-01-10T12:05:53.439Z,24.03
2019-01-10T12:08:27.241Z,24.00
2019-01-10T12:11:00.891Z,22.80
2019-01-10T12:13:34.696Z,24.13
2019-01-10T12:16:08.298Z,24.43
2019-01-10T12:18:41.922Z,25.20
2019-01-10T12:21:15.597Z,25.73
2019-01-10T12:23:49.220Z,24.37
2019-01-10T12:26:22.860Z,25.17
2019-01-10T12:28:56.554Z,23.83
2019-01-10T12:31:30.293Z,24.47
2019-01-10T12:34:03.954Z,23.50
2019-01-10T12:36:37.580Z,22.80
2019-01-10T12:39:11.220Z,25.13
2019-01-10T12:41:44.894Z,25.50
2019-01-10T12:44:18.748Z,24.43
2019-01-10T12:46:52.476Z,24.00
2019-01-10T12:49:26.102Z,23.80
2019-01-10T12:51:59.764Z,24.90
2019-01-10T12:54:33.421Z,25.93
2019-01-10T12:57:07.060Z,23.40
2019-01-10T12:59:40.738Z,26.07
2019-01-10T13:02:14.427Z,26.07
2019-01-10T13:04:48.436Z,25.90
2019-01-10T13:07:22.136Z,25.57
2019-01-10T13:09:55.792Z,25.03
2019-01-10T13:12:29.471Z,23.70
2019-01-10T13:15:03.278Z,25.37
2019-01-10T13:17:36.871Z,23.67
2019-01-10T13:20:12.407Z,24.80
2019-01-10T13:22:45.997Z,23.30
2019-01-10T13:25:20.764Z,25.13
2019-01-10T13:27:54.478Z,24.40
2019-01-10T13:30:28.198Z,38.60
2019-01-10T13:33:01.841Z,28.70
2019-01-10T13:35:35.539Z,28.27
2019-01-10T13:38:09.140Z,28.73
2019-01-10T13:40:42.949Z,30.30
2019-01-10T13:43:16.882Z,28.80
2019-01-10T13:45:50.591Z,30.40
2019-01-10T13:48:24.187Z,28.17
2019-01-10T13:50:58.111Z,26.87
2019-01-10T13:53:31.742Z,31.23
2019-01-10T13:56:05.620Z,30.87
2019-01-10T13:58:39.211Z,32.10
2019-01-10T14:01:12.813Z,30.07
2019-01-10T14:03:46.410Z,30.73
2019-01-10T14:06:20.106Z,29.30
2019-01-10T14:08:53.836Z,27.13
2019-01-10T14:11:27.544Z,27.93
2019-01-10T14:14:01.208Z,27.83
2019-01-10T14:16:35.004Z,27.07
2019-01-10T14:19:08.600Z,30.07
2019-01-10T14:21:46.599Z,30.03
2019-01-10T14:24:17.755Z,30.77
2019-01-10T14:26:51.378Z,28.93
2019-01-10T14:29:25.200Z,30.47
2019-01-10T14:31:58.996Z,30.87
2019-01-10T14:34:32.815Z,30.60
2019-01-10T14:37:06.602Z,30.20
2019-01-10T14:39:40.283Z,28.80
2019-01-10T14:42:13.981Z,32.80
2019-01-10T14:44:47.570Z,30.10
2019-01-10T14:47:21.213Z,29.57
2019-01-10T14:49:54.871Z,29.40
2019-01-10T14:52:28.632Z,31.97
2019-01-10T14:55:02.292Z,28.90
2019-01-10T14:57:36.006Z,31.47
2019-01-10T15:00:13.006Z,28.97
2019-01-10T15:02:46.852Z,33.27
2019-01-10T15:05:21.026Z,29.00
2019-01-10T15:07:54.868Z,28.97
2019-01-10T15:10:28.466Z,29.70
2019-01-10T15:13:02.335Z,31.03
2019-01-10T15:15:36.076Z,30.47
2019-01-10T15:18:09.720Z,29.77
2019-01-10T15:20:43.454Z,28.30
2019-01-10T15:23:17.222Z,29.80
2019-01-10T15:25:50.829Z,29.63
2019-01-10T15:28:24.524Z,29.53
2019-01-10T15:30:58.110Z,30.10
2019-01-10T15:33:31.734Z,27.87
2019-01-10T15:36:05.782Z,29.67
2019-01-10T15:38:39.419Z,32.90
2019-01-10T15:41:13.175Z,30.33
2019-01-10T15:43:46.768Z,29.93
2019-01-10T15:46:20.480Z,31.70
2019-01-10T15:48:54.150Z,30.10
2019-01-10T15:51:27.743Z,29.93
2019-01-10T15:54:01.466Z,29.53
2019-01-10T15:56:35.124Z,28.80
2019-01-10T15:59:08.898Z,29.73
2019-01-10T16:01:42.558Z,28.90
2019-01-10T16:04:16.348Z,29.87
2019-01-10T16:06:50.005Z,29.33
2019-01-10T16:09:23.645Z,27.87
2019-01-10T16:11:57.222Z,29.13
2019-01-10T16:14:30.980Z,28.03
2019-01-10T16:17:04.913Z,28.30
2019-01-10T16:19:38.561Z,26.23
2019-01-10T16:22:12.361Z,29.53
2019-01-10T16:24:46.000Z,29.50
2019-01-10T16:27:19.636Z,29.27
2019-01-10T16:29:53.601Z,27.53
2019-01-10T16:32:27.364Z,31.93
2019-01-10T16:35:01.363Z,31.57
2019-01-10T16:37:35.141Z,27.73
2019-01-10T16:40:11.409Z,29.40
2019-01-10T16:42:45.130Z,30.10
2019-01-10T16:45:21.820Z,27.67
2019-01-10T16:47:55.606Z,27.17
2019-01-10T16:50:29.349Z,28.53
2019-01-10T16:53:02.957Z,30.50
2019-01-10T16:55:36.596Z,31.20
2019-01-10T16:58:10.329Z,36.87
2019-01-10T17:00:43.990Z,39.00
2019-01-10T17:03:17.569Z,40.37
2019-01-10T17:05:51.179Z,41.23
2019-01-10T17:08:24.827Z,43.17
2019-01-10T17:10:58.411Z,43.53
2019-01-10T17:13:32.069Z,43.50
2019-01-10T17:16:05.909Z,36.97
2019-01-10T17:18:39.543Z,32.57
2019-01-10T17:21:13.224Z,43.17
2019-01-10T17:23:46.919Z,37.23
2019-01-10T17:26:20.544Z,32.23
2019-01-10T17:28:54.163Z,30.17
2019-01-10T17:31:27.770Z,28.47
2019-01-10T17:34:01.415Z,29.83
2019-01-10T17:36:35.125Z,35.70
2019-01-10T17:39:09.419Z,35.53
2019-01-10T17:41:43.173Z,33.70
2019-01-10T17:44:16.873Z,35.47
2019-01-10T17:46:50.583Z,33.40
2019-01-10T17:49:24.201Z,30.63
2019-01-10T17:51:57.942Z,35.27
2019-01-10T17:54:31.624Z,37.43
2019-01-10T17:57:05.223Z,41.37
2019-01-10T17:59:38.928Z,39.60
2019-01-10T18:02:12.535Z,35.47
2019-01-10T18:04:46.199Z,35.67
2019-01-10T18:07:19.789Z,47.83
2019-01-10T18:09:53.434Z,55.00
2019-01-10T18:12:27.055Z,52.77
2019-01-10T18:15:00.806Z,60.30
2019-01-10T18:17:34.411Z,57.53
2019-01-10T18:20:13.629Z,56.97
2019-01-10T18:22:47.353Z,48.37
2019-01-10T18:25:21.161Z,44.10
2019-01-10T18:27:54.878Z,43.53
2019-01-10T18:30:28.591Z,38.53
2019-01-10T18:33:02.333Z,42.30
2019-01-10T18:35:39.629Z,40.70
2019-01-10T18:38:13.241Z,39.43
2019-01-10T18:40:46.836Z,38.87
2019-01-10T18:43:20.519Z,40.30
2019-01-10T18:45:54.203Z,40.63
2019-01-10T18:48:27.801Z,39.57
2019-01-10T18:51:01.439Z,40.83
2019-01-10T18:53:35.024Z,47.00
2019-01-10T18:56:08.714Z,46.37
2019-01-10T18:58:42.485Z,47.17
2019-01-10T19:01:16.117Z,45.67
2019-01-10T19:03:49.695Z,41.43
2019-01-10T19:06:23.427Z,42.53
2019-01-10T19:08:57.046Z,45.70
2019-01-10T19:11:30.678Z,40.70
2019-01-10T19:14:04.943Z,43.57
2019-01-10T19:16:38.585Z,45.83
2019-01-10T19:19:12.187Z,46.13
2019-01-10T19:21:46.293Z,47.07
2019-01-10T19:24:19.891Z,42.73
2019-01-10T19:26:53.807Z,47.90
2019-01-10T19:29:27.404Z,47.20
2019-01-10T19:32:01.036Z,47.83
2019-01-10T19:34:35.100Z,46.97
2019-01-10T19:37:08.720Z,50.00
2019-01-10T19:39:42.321Z,49.20
2019-01-10T19:42:16.038Z,52.17
2019-01-10T19:44:49.639Z,50.30
2019-01-10T19:47:23.358Z,47.70
2019-01-10T19:49:58.631Z,47.37
2019-01-10T19:52:32.307Z,43.57
2019-01-10T19:55:08.164Z,39.60
2019-01-10T19:57:41.858Z,40.60
2019-01-10T20:00:24.231Z,39.47
2019-01-10T20:02:58.008Z,38.03
2019-01-10T20:05:31.592Z,39.13
2019-01-10T20:08:05.481Z,37.03
2019-01-10T20:10:39.087Z,37.47
2019-01-10T20:13:12.877Z,43.17
2019-01-10T20:15:46.654Z,42.37
2019-01-10T20:18:20.346Z,39.57
2019-01-10T20:20:53.967Z,38.10
2019-01-10T20:23:27.774Z,38.30
2019-01-10T20:26:01.434Z,37.43
2019-01-10T20:28:35.026Z,39.07
2019-01-10T20:31:09.001Z,37.37
2019-01-10T20:33:42.675Z,40.37
2019-01-10T20:36:16.446Z,42.63
2019-01-10T20:38:50.044Z,34.47
2019-01-10T20:41:23.777Z,37.33
2019-01-10T20:43:57.478Z,34.17
2019-01-10T20:46:31.253Z,33.53
2019-01-10T20:49:04.864Z,34.93
2019-01-10T20:51:38.597Z,34.53
2019-01-10T20:54:12.238Z,35.13
2019-01-10T20:56:45.986Z,35.73
2019-01-10T20:59:19.617Z,32.90
2019-01-10T21:01:53.330Z,31.80
2019-01-10T21:04:27.754Z,34.13
2019-01-10T21:07:01.542Z,32.93
2019-01-10T21:09:35.154Z,35.00
2019-01-10T21:12:08.938Z,33.00
2019-01-10T21:14:42.518Z,37.50
2019-01-10T21:17:18.881Z,34.13
2019-01-10T21:19:52.534Z,35.07
2019-01-10T21:22:26.259Z,36.67
2019-01-10T21:24:59.923Z,38.27
2019-01-10T21:27:33.623Z,38.17
2019-01-10T21:30:12.953Z,39.13
2019-01-10T21:32:47.961Z,40.93
2019-01-10T21:35:21.822Z,37.93
2019-01-10T21:37:55.562Z,35.50
2019-01-10T21:40:30.785Z,37.63
2019-01-10T21:43:04.561Z,36.87
2019-01-10T21:45:38.154Z,35.10
2019-01-10T21:48:11.963Z,36.73
2019-01-10T21:50:45.628Z,35.20
2019-01-10T21:53:19.446Z,33.77
2019-01-10T21:55:53.148Z,32.07
2019-01-10T21:58:26.751Z,31.70
2019-01-10T22:01:00.920Z,34.40
2019-01-10T22:03:34.671Z,31.13
2019-01-10T22:06:08.375Z,36.07
2019-01-10T22:08:42.112Z,34.67
2019-01-10T22:11:15.744Z,36.50
2019-01-10T22:13:49.329Z,37.87
2019-01-10T22:16:22.964Z,34.63
2019-01-10T22:18:56.711Z,32.90
2019-01-10T22:21:30.373Z,33.13
2019-01-10T22:24:04.136Z,35.13
2019-01-10T22:26:37.743Z,35.07
2019-01-10T22:29:11.410Z,39.27
2019-01-10T22:31:45.048Z,41.80
2019-01-10T22:34:18.724Z,39.17
2019-01-10T22:36:52.350Z,40.07
2019-01-10T22:39:25.953Z,37.20
2019-01-10T22:41:59.586Z,37.87
2019-01-10T22:44:33.182Z,34.13
2019-01-10T22:47:06.821Z,39.50
2019-01-10T22:49:40.396Z,38.50
2019-01-10T22:52:14.044Z,39.03
2019-01-10T22:54:47.693Z,39.00
2019-01-10T22:57:21.328Z,40.27
2019-01-10T22:59:54.928Z,39.97
2019-01-10T23:02:29.008Z,38.03
2019-01-10T23:05:02.603Z,41.03
2019-01-10T23:07:37.216Z,38.70
2019-01-10T23:10:11.174Z,39.07
2019-01-10T23:12:44.934Z,37.23
2019-01-10T23:15:23.410Z,39.73
2019-01-10T23:17:57.186Z,40.27
2019-01-10T23:20:30.787Z,45.03
2019-01-10T23:23:10.183Z,44.80
2019-01-10T23:25:45.403Z,41.87
2019-01-10T23:28:19.030Z,42.57
2019-01-10T23:30:55.410Z,38.60
2019-01-10T23:33:29.382Z,39.23
2019-01-10T23:36:03.912Z,41.43
2019-01-10T23:38:37.611Z,37.77
2019-01-10T23:41:11.216Z,41.03
2019-01-10T23:43:44.886Z,38.40
2019-01-10T23:46:18.536Z,40.73
2019-01-10T23:48:52.172Z,37.53
2019-01-10T23:51:25.850Z,39.83
2019-01-10T23:53:59.458Z,39.20
2019-01-10T23:56:34.179Z,42.07
2019-01-10T23:59:07.804Z,37.87
